Luzerne, New York
Current Conditions -  °F | °C
As of 9:53 PM on Wednesday 26 Nov 2014 (Local Time) from KGFL Reporting Station
Light Snow Light Snow  
Wind Chill: 22°   Ceiling: 1800
Heat Index: 31°   Visibility: 1.7mi
Dew Point: 27°   Wind: 12mph
Humidity: 85%   Direction: 360°N
Pressure: 29.93"   Gusts: NA
Location:  43.3271°N, 73.8026°W
Report Text: KGFL 270253Z AUTO 36010KT 1 3/4SM -SN BR OVC018 M01/M03 A2993 RMK AO2 SLP143 P0001 60007 T10061028 58012
Loading
Personal Weather Stations






























Interactive Weather Map New forecast layout! Learn more

10-Day Weather Forecast

Advertisements
Track Severe Weather on mobile